Terminal Aerodrome Forecast
Issued by NWS

Home | Current Version | Previous Version | Text Only | Print | Product List | Glossary On
Versions: 1 2 3 4 5 6 7 8 9 10 11 12 13 14 15 16
389
FTAK31 PAJN 261129
TAFAGY
TAF
PAGY 261129Z 2612/2712 00000KT 4SM -SN BR SCT008 OVC035
      TEMPO 2612/2614 1SM -SN BR FEW004 OVC010
     FM261500 04007KT P6SM -SHSN SCT010 BKN040
     FM261800 03012KT P6SM BKN070
     FM271100 04005KT 5SM -SN BR BKN020 OVC035
      AMD LTD TO CLD VIS AND WIND=

USA.gov is the U.S. government's official web portal to all federal, state and local government web resources and services.